Terminal Aerodrome Forecast
Issued by NWS

Home | Current Version | Previous Version | Text Only | Print | Product List | Glossary On
Versions: 1 2 3 4 5 6 7 8 9 10 11 12 13 14 15 16 17 18 19 20 21 22 23 24 25 26 27
000
FTUS46 KSGX 161400 AAA
TAFSAN
TAF AMD
KSAN 161417Z 1614/1718 VRB04KT P6SM OVC014
     FM161700 VRB04KT P6SM SCT015
     FM161900 29009KT P6SM SKC
     FM170000 29006KT P6SM SCT015
     FM170200 VRB04KT P6SM OVC015
     FM171700 VRB05KT P6SM FEW015=

USA.gov is the U.S. government's official web portal to all federal, state and local government web resources and services.